Time;durP1;ratioP1;P1;durP2;ratioP2;P2;SDS_P1;SDS_P2;PMS_P1;PMS_P2;Temp;Humidity;BMP_temperature;BMP_pressure;BME280_temperature;BME280_humidity;BME280_pressure;Samples;Min_cycle;Max_cycle;Signal;HPM_P1;HPM_P2
2021/08/31 00:02:17;;;;;;;8.10;5.35;;;;;;;20.40;64.82;100250.44;5031134;28;20527;-64
2021/08/31 00:04:44;;;;;;;11.40;6.15;;;;;;;20.41;64.70;100252.94;5049569;28;20405;-64
2021/08/31 00:07:11;;;;;;;13.82;6.40;;;;;;;20.31;64.65;100250.56;5035276;28;20084;-63
2021/08/31 00:09:38;;;;;;;12.25;6.18;;;;;;;20.38;64.78;100262.16;5030523;28;20129;-64
2021/08/31 00:12:05;;;;;;;7.03;4.82;;;;;;;20.29;64.86;100250.09;5034426;28;20085;-66
2021/08/31 00:14:35;;;;;;;8.30;4.43;;;;;;;20.00;64.58;100215.09;5036661;28;20045;-65
2021/08/31 00:17:05;;;;;;;8.63;5.03;;;;;;;20.23;64.58;100251.50;5038102;28;20055;-64
2021/08/31 00:19:32;;;;;;;14.00;6.15;;;;;;;20.20;64.60;100253.00;5037679;28;20124;-64
2021/08/31 00:21:59;;;;;;;8.82;5.43;;;;;;;20.17;64.63;100252.91;5035861;28;20454;-63
2021/08/31 00:24:26;;;;;;;12.93;7.00;;;;;;;20.13;64.69;100258.44;5046610;28;20128;-64
2021/08/31 00:26:54;;;;;;;13.07;6.75;;;;;;;19.98;64.97;100233.63;5035623;28;20481;-64
2021/08/31 00:29:20;;;;;;;16.13;5.95;;;;;;;20.11;65.16;100258.81;5034420;28;20037;-64
2021/08/31 00:31:48;;;;;;;14.50;6.40;;;;;;;20.13;65.19;100264.94;5030778;28;20446;-66
2021/08/31 00:34:15;;;;;;;9.95;6.03;;;;;;;20.02;64.97;100235.41;5038734;28;20053;-67
2021/08/31 00:36:42;;;;;;;14.23;5.78;;;;;;;20.10;65.04;100257.16;5034939;28;20053;-65
2021/08/31 00:39:09;;;;;;;13.88;5.65;;;;;;;20.01;64.96;100232.94;5042038;28;20573;-66
2021/08/31 00:41:36;;;;;;;12.45;5.75;;;;;;;20.00;65.00;100237.78;5031344;28;20124;-70
2021/08/31 00:44:04;;;;;;;11.93;5.45;;;;;;;20.09;65.30;100251.84;5049287;28;20129;-61
2021/08/31 00:46:31;;;;;;;11.13;5.07;;;;;;;19.98;65.15;100234.47;5039297;28;20065;-61
2021/08/31 00:48:58;;;;;;;14.18;5.18;;;;;;;20.15;65.20;100252.44;5036482;28;20509;-61
2021/08/31 00:51:26;;;;;;;15.93;6.20;;;;;;;20.15;65.06;100244.75;5070309;28;20132;-61
2021/08/31 00:53:53;;;;;;;10.70;5.68;;;;;;;20.15;65.12;100244.75;5046901;28;20168;-61
2021/08/31 00:56:21;;;;;;;10.98;5.70;;;;;;;20.09;65.05;100238.47;5042582;28;20164;-61
2021/08/31 00:58:48;;;;;;;13.20;6.30;;;;;;;20.09;65.13;100246.16;5038313;28;20089;-61
2021/08/31 01:01:15;;;;;;;12.13;6.47;;;;;;;20.03;65.57;100237.06;5038180;28;20081;-61
2021/08/31 01:03:43;;;;;;;11.80;5.68;;;;;;;20.15;65.27;100260.94;5045309;28;20048;-61
2021/08/31 01:06:10;;;;;;;9.15;5.22;;;;;;;20.10;65.26;100256.31;5042166;28;20080;-61
2021/08/31 01:08:37;;;;;;;14.15;6.30;;;;;;;20.06;65.25;100259.03;5040496;28;20088;-59
2021/08/31 01:11:05;;;;;;;9.48;4.88;;;;;;;20.02;65.33;100262.94;5038845;28;20068;-59
2021/08/31 01:13:33;;;;;;;11.10;5.18;;;;;;;19.92;65.39;100247.19;5042686;28;20444;-60
2021/08/31 01:16:01;;;;;;;13.43;6.15;;;;;;;19.87;64.90;100244.59;5036595;28;22608;-60
2021/08/31 01:18:28;;;;;;;10.27;5.88;;;;;;;19.61;65.00;100214.50;5031457;28;20057;-59
2021/08/31 01:20:58;;;;;;;8.50;4.90;;;;;;;19.82;64.93;100247.63;5034884;28;20067;-59
2021/08/31 01:23:26;;;;;;;10.90;6.10;;;;;;;19.76;65.10;100252.72;5032114;28;20049;-59
2021/08/31 01:25:54;;;;;;;16.02;6.80;;;;;;;19.78;65.44;100253.19;5032957;28;20572;-59
2021/08/31 01:28:24;;;;;;;14.68;6.40;;;;;;;19.77;65.84;100256.38;5032206;28;20100;-59
2021/08/31 01:30:52;;;;;;;14.85;6.80;;;;;;;19.79;66.19;100254.00;5038665;28;20087;-59
2021/08/31 01:33:21;;;;;;;14.43;7.20;;;;;;;19.79;66.30;100254.81;5033453;28;20115;-57
2021/08/31 01:35:48;;;;;;;14.20;6.13;;;;;;;19.78;66.27;100263.69;5031008;28;20049;-58
2021/08/31 01:38:15;;;;;;;11.23;4.90;;;;;;;19.70;66.21;100254.13;5049207;28;20705;-58
2021/08/31 01:40:42;;;;;;;10.73;6.63;;;;;;;19.81;66.20;100260.97;5048222;28;20164;-58
2021/08/31 01:43:09;;;;;;;12.10;6.15;;;;;;;19.79;66.21;100265.34;5031006;28;20489;-59
2021/08/31 01:45:46;;;;;;;9.00;5.85;;;;;;;19.81;65.92;100260.16;5034944;28;20473;-60
2021/08/31 01:48:13;;;;;;;12.65;6.45;;;;;;;19.80;65.68;100261.34;5034065;28;20416;-67
2021/08/31 01:50:40;;;;;;;16.15;6.68;;;;;;;19.84;65.89;100263.13;5045733;28;20129;-65
2021/08/31 01:53:07;;;;;;;10.55;5.30;;;;;;;19.81;65.53;100251.66;5042506;28;20132;-68
2021/08/31 01:55:34;;;;;;;11.15;6.35;;;;;;;19.87;65.90;100259.59;5030465;28;20124;-72
2021/08/31 01:58:01;;;;;;;12.65;6.13;;;;;;;19.87;65.33;100264.44;5038171;28;20124;-69
2021/08/31 02:00:29;;;;;;;10.13;5.15;;;;;;;19.87;65.14;100250.28;5040976;28;20087;-69
2021/08/31 02:02:58;;;;;;;9.00;5.07;;;;;;;19.76;65.19;100238.56;5039322;28;20132;-69
2021/08/31 02:05:26;;;;;;;12.90;5.13;;;;;;;19.74;64.97;100240.91;5039229;28;20057;-68
2021/08/31 02:07:53;;;;;;;9.35;5.75;;;;;;;19.74;65.08;100252.22;5035160;28;20626;-67
2021/08/31 02:10:20;;;;;;;11.93;5.68;;;;;;;19.56;64.86;100231.75;5033510;28;20080;-66
2021/08/31 02:12:47;;;;;;;12.40;5.82;;;;;;;19.59;65.13;100245.19;5037175;28;20069;-66
2021/08/31 02:15:14;;;;;;;8.43;4.88;;;;;;;19.50;65.13;100235.97;5040902;28;20215;-66
2021/08/31 02:17:41;;;;;;;13.65;5.53;;;;;;;19.35;65.35;100230.94;5041410;28;20136;-66
2021/08/31 02:20:10;;;;;;;11.18;5.53;;;;;;;19.39;65.43;100235.56;5047753;28;20120;-65
2021/08/31 02:22:38;;;;;;;10.93;4.97;;;;;;;19.34;65.49;100232.09;5039087;28;20080;-65
2021/08/31 02:25:06;;;;;;;14.10;5.68;;;;;;;19.27;65.53;100238.34;5036882;28;20132;-65
2021/08/31 02:27:33;;;;;;;10.30;5.32;;;;;;;19.22;65.72;100235.72;5044772;28;20124;-65
2021/08/31 02:29:59;;;;;;;10.38;5.75;;;;;;;19.08;65.65;100221.03;5043437;28;20500;-65
2021/08/31 02:32:26;;;;;;;11.70;5.32;;;;;;;19.17;65.71;100241.59;5062780;28;20080;-65
2021/08/31 02:34:53;;;;;;;9.85;5.85;;;;;;;19.09;66.03;100231.19;5036776;28;20128;-65
2021/08/31 02:37:20;;;;;;;11.65;5.65;;;;;;;19.15;65.55;100246.78;5043120;28;20103;-66
2021/08/31 02:39:47;;;;;;;10.30;5.63;;;;;;;19.07;65.75;100239.16;5043001;28;20076;-66
2021/08/31 02:42:14;;;;;;;12.85;6.20;;;;;;;18.98;65.60;100230.78;5032386;28;20077;-65
2021/08/31 02:44:40;;;;;;;14.45;5.32;;;;;;;19.01;65.67;100240.53;5033749;28;20129;-65
2021/08/31 02:47:08;;;;;;;11.05;5.00;;;;;;;18.88;65.79;100214.22;5035424;28;20128;-65
2021/08/31 02:49:34;;;;;;;11.35;6.47;;;;;;;18.98;65.86;100233.59;5034966;28;20172;-64
2021/08/31 02:52:02;;;;;;;9.55;4.65;;;;;;;18.99;67.04;100234.41;5054205;28;20083;-65
2021/08/31 02:54:29;;;;;;;9.20;4.03;;;;;;;19.04;67.75;100226.56;5040765;28;20087;-65
2021/08/31 02:56:55;;;;;;;6.22;3.90;;;;;;;19.14;67.24;100226.16;5043249;28;20128;-65
2021/08/31 02:59:22;;;;;;;6.07;4.18;;;;;;;19.23;67.18;100226.06;5045300;28;20488;-65
2021/08/31 03:02:10;;;;;;;7.85;4.22;;;;;;;19.23;67.01;100225.22;5042274;28;20049;-66
2021/08/31 03:04:43;;;;;;;6.97;3.80;;;;;;;19.22;67.40;100215.09;5040641;28;20049;-65
2021/08/31 03:07:14;;;;;;;8.30;3.63;;;;;;;19.35;67.51;100225.25;5035803;28;20050;-65
2021/08/31 03:09:41;;;;;;;;;;;;;;;19.30;68.06;100234.81;5037082;28;20367;-63
2021/08/31 03:12:09;;;;;;;8.27;4.07;;;;;;;19.37;67.34;100232.25;5036072;28;20008;-63
2021/08/31 03:14:36;;;;;;;8.15;3.60;;;;;;;19.34;67.32;100220.78;5045306;28;20545;-60
2021/08/31 03:17:03;;;;;;;9.25;4.28;;;;;;;19.37;67.03;100222.94;5035255;28;20077;-60
2021/08/31 03:19:30;;;;;;;6.13;3.53;;;;;;;19.30;67.25;100222.66;5046587;28;20080;-61
2021/08/31 03:22:00;;;;;;;8.75;4.30;;;;;;;19.27;67.26;100220.53;5038307;28;20541;-61
2021/08/31 03:24:27;;;;;;;10.70;4.45;;;;;;;19.28;66.75;100225.84;5037840;28;20087;-63
2021/08/31 03:26:54;;;;;;;10.63;4.82;;;;;;;19.25;66.60;100217.19;5036245;28;20475;-63
2021/08/31 03:29:21;;;;;;;10.18;4.32;;;;;;;19.22;66.77;100217.91;5039727;28;20080;-69
2021/08/31 03:31:48;;;;;;;7.50;4.30;;;;;;;19.22;66.57;100221.56;5043279;28;20495;-69
2021/08/31 03:34:15;;;;;;;9.60;4.00;;;;;;;19.17;66.58;100216.94;5045040;28;20087;-69
2021/08/31 03:36:43;;;;;;;7.55;4.47;;;;;;;19.13;66.77;100218.81;5058436;28;20141;-69
2021/08/31 03:39:10;;;;;;;7.57;5.00;;;;;;;19.04;66.65;100206.75;5038081;28;20080;-69
2021/08/31 03:41:36;;;;;;;9.25;4.88;;;;;;;19.14;66.73;100223.31;5041961;28;20187;-70
2021/08/31 03:44:05;;;;;;;9.35;4.60;;;;;;;19.13;66.39;100213.16;5049600;28;20446;-69
2021/08/31 03:46:32;;;;;;;7.28;4.00;;;;;;;19.02;66.25;100206.25;5034884;28;20441;-68
2021/08/31 03:49:00;;;;;;;7.72;4.88;;;;;;;19.09;66.33;100220.69;5038871;28;20045;-60
2021/08/31 03:51:27;;;;;;;9.40;4.50;;;;;;;19.04;66.06;100226.56;5043770;28;20057;-59
2021/08/31 03:53:54;;;;;;;10.93;4.50;;;;;;;18.90;65.94;100217.50;5045447;28;20125;-59
2021/08/31 03:56:21;;;;;;;9.77;4.82;;;;;;;18.90;66.01;100234.47;5035777;28;20128;-58
2021/08/31 03:58:48;;;;;;;9.43;4.97;;;;;;;18.75;65.86;100218.13;5041675;28;20128;-59
2021/08/31 04:01:15;;;;;;;8.02;4.45;;;;;;;18.64;65.85;100210.00;5034332;28;20037;-59
2021/08/31 04:03:42;;;;;;;8.15;4.03;;;;;;;18.75;65.85;100226.63;5032117;28;20476;-58
2021/08/31 04:06:09;;;;;;;8.68;4.45;;;;;;;18.66;65.72;100224.63;5051520;28;20083;-59
2021/08/31 04:08:36;;;;;;;9.32;4.35;;;;;;;18.62;65.97;100223.66;5038325;28;20041;-60
2021/08/31 04:11:03;;;;;;;11.02;4.45;;;;;;;18.58;65.96;100225.53;5032811;28;20049;-59
2021/08/31 04:13:30;;;;;;;9.02;4.88;;;;;;;18.56;65.91;100216.53;5037746;28;20125;-58
2021/08/31 04:15:57;;;;;;;10.73;5.68;;;;;;;18.48;65.78;100206.13;5042383;28;20066;-59
2021/08/31 04:18:24;;;;;;;11.50;5.10;;;;;;;18.54;66.27;100218.91;5041759;28;20045;-60
2021/08/31 04:20:51;;;;;;;10.05;5.00;;;;;;;18.55;65.99;100222.56;5055608;28;20123;-60
2021/08/31 04:23:18;;;;;;;7.75;4.22;;;;;;;18.45;65.81;100229.44;5038358;28;20083;-62
2021/08/31 04:25:44;;;;;;;6.60;4.50;;;;;;;18.42;65.94;100235.75;5033396;28;20072;-63
2021/08/31 04:28:11;;;;;;;7.38;4.82;;;;;;;18.32;66.14;100224.84;5039012;28;20049;-64
2021/08/31 04:30:38;;;;;;;8.27;4.63;;;;;;;18.31;66.14;100235.31;5033280;28;20493;-64
2021/08/31 04:33:05;;;;;;;7.30;4.30;;;;;;;18.06;65.94;100203.19;5035783;28;20077;-63
2021/08/31 04:35:32;;;;;;;11.60;5.20;;;;;;;18.20;66.12;100229.22;5037644;28;20445;-64
2021/08/31 04:37:59;;;;;;;10.95;4.88;;;;;;;18.27;66.66;100237.19;5043833;28;20044;-64
2021/08/31 04:40:26;;;;;;;8.48;4.97;;;;;;;18.31;66.72;100237.31;5060261;28;20120;-64
2021/08/31 04:42:53;;;;;;;11.93;5.43;;;;;;;18.26;67.01;100227.06;5033112;28;20121;-63
2021/08/31 04:45:20;;;;;;;8.52;5.07;;;;;;;18.11;67.06;100202.16;5030648;28;20046;-62
2021/08/31 04:47:47;;;;;;;8.90;4.57;;;;;;;18.30;67.03;100232.84;5035471;28;20076;-62
2021/08/31 04:50:14;;;;;;;8.10;4.13;;;;;;;18.32;67.18;100238.97;5035207;28;20122;-63
2021/08/31 04:52:40;;;;;;;7.25;3.65;;;;;;;18.30;67.59;100244.16;5048266;28;20045;-63
2021/08/31 04:55:08;;;;;;;4.82;3.30;;;;;;;18.29;67.22;100226.38;5031872;28;20116;-62
2021/08/31 04:57:35;;;;;;;7.65;3.83;;;;;;;18.37;67.40;100239.63;5033351;28;20137;-62
2021/08/31 05:00:02;;;;;;;7.95;3.78;;;;;;;18.37;67.43;100231.13;5036318;28;20470;-63
2021/08/31 05:02:31;;;;;;;8.30;3.88;;;;;;;18.14;66.88;100193.03;5031165;28;20060;-62
2021/08/31 05:04:59;;;;;;;9.35;4.65;;;;;;;18.33;67.04;100226.53;5036844;28;20053;-61
2021/08/31 05:07:25;;;;;;;6.93;4.55;;;;;;;18.33;66.89;100232.16;5030337;28;20529;-59
2021/08/31 05:09:52;;;;;;;7.50;4.07;;;;;;;18.26;67.19;100226.22;5034468;28;20042;-61
2021/08/31 05:12:19;;;;;;;6.68;3.85;;;;;;;18.34;66.90;100231.00;5035480;28;20077;-60
2021/08/31 05:14:46;;;;;;;8.05;4.30;;;;;;;18.38;66.84;100234.78;5036998;28;20125;-59
2021/08/31 05:17:13;;;;;;;9.20;4.25;;;;;;;18.32;67.16;100225.66;5039494;28;20132;-61
2021/08/31 05:19:42;;;;;;;11.07;4.50;;;;;;;18.31;66.76;100234.50;5039862;28;20087;-62
2021/08/31 05:22:10;;;;;;;7.33;4.00;;;;;;;18.30;66.51;100219.53;5044285;28;20049;-63
2021/08/31 05:24:38;;;;;;;5.47;3.75;;;;;;;18.32;66.74;100234.16;5036663;28;20128;-68
2021/08/31 05:27:06;;;;;;;7.60;3.67;;;;;;;18.31;67.05;100228.84;5041987;28;20045;-63
2021/08/31 05:29:34;;;;;;;7.80;3.85;;;;;;;18.27;66.87;100216.56;5041199;28;20077;-60
2021/08/31 05:32:00;;;;;;;6.93;3.53;;;;;;;18.31;67.30;100223.19;5037872;28;20128;-68
2021/08/31 05:34:28;;;;;;;5.63;3.55;;;;;;;18.38;67.00;100223.47;5049441;28;20081;-66
2021/08/31 05:36:58;;;;;;;5.75;3.33;;;;;;;18.38;67.15;100229.13;5055608;28;20616;-68
2021/08/31 05:39:32;;;;;;;6.03;3.50;;;;;;;18.44;66.83;100239.09;5044461;28;20080;-64
2021/08/31 05:42:10;;;;;;;7.90;4.35;;;;;;;18.38;67.08;100229.97;5054205;28;20045;-65
2021/08/31 05:44:39;;;;;;;7.35;3.95;;;;;;;18.45;66.77;100229.44;5043075;28;20554;-65
2021/08/31 05:47:07;;;;;;;5.20;3.23;;;;;;;18.46;66.86;100237.59;5048730;28;20544;-65
2021/08/31 05:49:35;;;;;;;8.43;4.07;;;;;;;18.48;66.99;100240.06;5043452;28;20297;-65
2021/08/31 05:52:02;;;;;;;7.75;3.80;;;;;;;18.46;66.81;100242.38;5036893;28;20463;-72
2021/08/31 05:54:29;;;;;;;5.93;3.42;;;;;;;18.53;66.73;100245.53;5052485;28;20073;-70
2021/08/31 05:56:57;;;;;;;8.00;3.40;;;;;;;18.56;66.60;100236.34;5050317;28;20144;-63
2021/08/31 05:59:24;;;;;;;6.63;3.67;;;;;;;18.51;66.78;100245.03;5038971;28;20045;-60
2021/08/31 06:01:56;;;;;;;4.65;3.13;;;;;;;18.35;66.86;100218.50;5039841;28;20386;-61
2021/08/31 06:04:35;;;;;;;6.75;3.65;;;;;;;18.47;66.81;100238.41;5043154;28;20051;-61
2021/08/31 06:07:10;;;;;;;7.75;3.53;;;;;;;18.23;66.73;100228.56;5034232;28;20087;-60
2021/08/31 06:09:40;;;;;;;12.48;3.58;;;;;;;18.23;67.25;100231.38;5034305;28;20114;-60
2021/08/31 06:12:08;;;;;;;;;;;;;;;18.10;67.23;100235.25;5037371;28;20053;-61
2021/08/31 06:14:35;;;;;;;9.23;4.13;;;;;;;18.11;67.48;100242.56;5044414;28;19959;-61
2021/08/31 06:17:03;;;;;;;9.80;5.40;;;;;;;17.92;67.53;100214.72;5046757;28;20089;-61
2021/08/31 06:19:30;;;;;;;7.43;3.88;;;;;;;17.99;67.29;100237.63;5035661;28;20502;-61
2021/08/31 06:21:57;;;;;;;12.52;5.13;;;;;;;17.95;67.39;100233.84;5050978;28;20533;-60
2021/08/31 06:24:25;;;;;;;7.22;4.30;;;;;;;17.94;67.63;100236.97;5032530;28;20042;-60
2021/08/31 06:26:52;;;;;;;8.50;4.72;;;;;;;17.85;67.47;100224.91;5034543;28;20120;-61
2021/08/31 06:29:18;;;;;;;10.50;5.47;;;;;;;17.92;67.56;100222.38;5040435;28;20124;-59
2021/08/31 06:31:45;;;;;;;8.32;5.15;;;;;;;18.06;67.54;100236.28;5050275;28;20072;-61
2021/08/31 06:34:12;;;;;;;9.50;4.60;;;;;;;18.06;67.39;100227.81;5045177;28;20083;-59
2021/08/31 06:36:39;;;;;;;9.75;4.75;;;;;;;18.10;67.28;100229.59;5038722;28;20045;-59
2021/08/31 06:39:06;;;;;;;7.63;3.55;;;;;;;18.16;67.39;100233.09;5040432;28;20484;-59
2021/08/31 06:41:33;;;;;;;7.85;4.53;;;;;;;18.24;67.15;100235.84;5035022;28;20133;-62
2021/08/31 06:44:03;;;;;;;8.82;4.28;;;;;;;18.34;67.32;100239.47;5040655;28;20051;-69
2021/08/31 06:46:30;;;;;;;8.45;3.75;;;;;;;18.38;66.74;100234.78;5044039;28;20124;-64
2021/08/31 06:49:10;;;;;;;8.43;4.10;;;;;;;18.45;66.93;100229.44;5033128;28;20055;-64
2021/08/31 06:51:37;;;;;;;9.73;4.70;;;;;;;18.57;66.19;100235.19;5034368;28;20326;-60
2021/08/31 06:54:04;;;;;;;8.15;4.30;;;;;;;18.64;66.25;100226.97;5041599;28;20048;-62
2021/08/31 06:56:31;;;;;;;8.10;4.03;;;;;;;18.72;65.80;100239.44;5046458;28;20084;-67
2021/08/31 06:58:58;;;;;;;8.05;3.58;;;;;;;18.79;65.64;100244.56;5038759;28;20144;-61
2021/08/31 07:01:24;;;;;;;5.65;3.30;;;;;;;18.80;65.65;100232.06;5033225;28;20118;-61
2021/08/31 07:03:51;;;;;;;6.78;4.00;;;;;;;18.99;65.23;100240.91;5035737;28;20045;-62
2021/08/31 07:06:19;;;;;;;7.75;3.40;;;;;;;19.06;64.81;100226.22;5039754;28;20140;-61
2021/08/31 07:08:46;;;;;;;9.80;4.30;;;;;;;19.22;64.46;100229.25;5042118;28;20041;-65
2021/08/31 07:11:13;;;;;;;5.13;3.70;;;;;;;19.35;63.74;100234.63;5040871;28;20090;-66
2021/08/31 07:13:40;;;;;;;5.18;3.53;;;;;;;19.61;63.19;100236.34;5049139;28;20140;-66
2021/08/31 07:16:07;;;;;;;8.27;4.03;;;;;;;19.97;62.59;100243.31;5036043;28;20552;-64
2021/08/31 07:18:33;;;;;;;8.68;3.38;;;;;;;20.29;61.80;100250.91;5034080;28;20473;-62
2021/08/31 07:21:00;;;;;;;10.98;3.40;;;;;;;20.69;60.98;100257.91;5049104;28;20045;-60
2021/08/31 07:23:27;;;;;;;4.35;2.70;;;;;;;21.00;60.49;100252.41;5042286;28;20057;-62
2021/08/31 07:25:54;;;;;;;6.15;3.35;;;;;;;20.88;60.12;100237.41;5041509;28;20055;-60
2021/08/31 07:28:21;;;;;;;7.38;2.67;;;;;;;21.22;59.48;100258.75;5031693;28;20084;-60
2021/08/31 07:30:48;;;;;;;7.53;3.25;;;;;;;21.54;58.91;100256.91;5033189;28;20457;-60
2021/08/31 07:33:15;;;;;;;5.80;3.47;;;;;;;21.90;58.33;100255.03;5037745;28;20142;-60
2021/08/31 07:35:43;;;;;;;9.13;3.92;;;;;;;22.15;57.62;100245.19;5038692;28;20395;-60
2021/08/31 07:38:10;;;;;;;7.40;2.70;;;;;;;22.34;56.69;100246.47;5035727;28;20081;-60
2021/08/31 07:40:37;;;;;;;6.65;2.65;;;;;;;22.56;56.02;100225.06;5033497;28;20088;-60
2021/08/31 07:43:05;;;;;;;9.88;3.97;;;;;;;22.95;55.47;100245.94;5041001;28;20433;-61
2021/08/31 07:45:32;;;;;;;7.53;3.22;;;;;;;23.12;54.88;100239.00;5047335;28;20048;-60
2021/08/31 07:47:59;;;;;;;9.38;3.40;;;;;;;23.45;54.13;100251.88;5038884;28;20050;-61
2021/08/31 07:50:27;;;;;;;12.70;3.50;;;;;;;23.70;53.18;100249.59;5035695;28;20124;-64
2021/08/31 07:52:53;;;;;;;7.03;3.65;;;;;;;24.12;53.13;100249.56;5043477;28;20128;-61
2021/08/31 07:55:21;;;;;;;4.90;3.13;;;;;;;24.36;52.02;100243.47;5044874;28;20080;-60
2021/08/31 07:57:48;;;;;;;7.90;3.40;;;;;;;24.64;51.78;100245.19;5040817;28;20122;-61
2021/08/31 08:00:17;;;;;;;7.07;3.60;;;;;;;24.96;50.96;100231.41;5043318;28;20046;-61
2021/08/31 08:02:45;;;;;;;9.75;4.00;;;;;;;25.36;50.38;100238.47;5036325;28;20081;-60
2021/08/31 08:05:12;;;;;;;10.32;4.55;;;;;;;25.79;49.86;100244.72;5032290;28;20076;-60
2021/08/31 08:07:40;;;;;;;5.90;3.40;;;;;;;26.01;48.51;100251.50;5034643;28;20485;-69
2021/08/31 08:10:07;;;;;;;8.50;3.38;;;;;;;25.94;47.93;100245.72;5040780;28;20076;-73
2021/08/31 08:12:34;;;;;;;7.72;3.55;;;;;;;26.02;47.69;100243.75;5034014;28;20041;-65
2021/08/31 08:15:04;;;;;;;6.13;4.00;;;;;;;26.15;47.23;100251.69;5039947;28;20045;-65
2021/08/31 08:17:31;;;;;;;6.85;3.90;;;;;;;26.59;46.97;100253.72;5042617;28;20041;-59
2021/08/31 08:19:57;;;;;;;7.38;3.53;;;;;;;26.97;46.31;100259.28;5045886;28;20136;-59
2021/08/31 08:22:25;;;;;;;6.10;3.53;;;;;;;27.12;45.67;100246.72;5044324;28;20069;-66
2021/08/31 08:24:52;;;;;;;4.82;3.17;;;;;;;27.41;45.37;100259.16;5033800;28;20128;-60
2021/08/31 08:27:19;;;;;;;10.18;3.28;;;;;;;27.58;44.82;100257.59;5043519;28;20124;-59
2021/08/31 08:29:46;;;;;;;7.10;4.15;;;;;;;27.79;44.25;100239.66;5033434;28;20153;-63
2021/08/31 08:32:13;;;;;;;4.20;3.17;;;;;;;28.09;43.85;100254.50;5032921;28;20236;-61
2021/08/31 08:34:40;;;;;;;10.32;4.47;;;;;;;28.26;43.12;100254.94;5034134;28;20549;-58
2021/08/31 08:37:08;;;;;;;4.57;3.08;;;;;;;28.33;42.54;100246.31;5039645;28;20068;-59
2021/08/31 08:39:35;;;;;;;6.00;3.50;;;;;;;28.21;42.72;100238.13;5052281;28;20148;-61
2021/08/31 08:42:05;;;;;;;7.13;3.60;;;;;;;28.37;42.43;100235.66;5046392;28;20136;-58
2021/08/31 08:44:33;;;;;;;5.03;3.30;;;;;;;28.31;42.06;100245.94;5036473;28;20136;-59
2021/08/31 08:47:00;;;;;;;6.18;3.08;;;;;;;28.15;42.36;100259.84;5036295;28;20088;-60
2021/08/31 08:49:28;;;;;;;5.10;3.33;;;;;;;28.33;42.03;100261.50;5032438;28;20120;-61
2021/08/31 08:51:58;;;;;;;9.68;3.38;;;;;;;28.45;41.34;100260.31;5034633;28;20128;-60
2021/08/31 08:54:25;;;;;;;5.05;2.83;;;;;;;28.62;40.88;100249.25;5045461;28;20092;-59
2021/08/31 08:56:54;;;;;;;5.43;2.90;;;;;;;29.02;40.60;100257.41;5036289;28;20084;-59
2021/08/31 08:59:22;;;;;;;8.25;2.58;;;;;;;29.47;40.28;100266.31;5052204;28;20461;-59
2021/08/31 09:01:52;;;;;;;7.72;2.75;;;;;;;29.91;38.90;100236.09;5042278;28;20158;-59
2021/08/31 09:04:46;;;;;;;4.80;2.80;;;;;;;30.41;39.23;100270.34;5031310;28;20049;-59
2021/08/31 09:07:30;;;;;;;11.85;2.58;;;;;;;30.72;38.05;100270.50;5033413;28;20073;-59
2021/08/31 09:10:14;;;;;;;5.05;2.50;;;;;;;31.15;37.27;100273.00;5038663;28;20053;-60
2021/08/31 09:12:44;;;;;;;6.13;2.30;;;;;;;31.70;36.55;100274.84;5049491;28;20037;-59
2021/08/31 09:15:40;;;;;;;3.78;2.33;;;;;;;32.14;36.74;100275.94;5042016;28;20106;-59
2021/08/31 09:18:13;;;;;;;4.55;2.40;;;;;;;32.70;35.15;100273.38;5034096;28;20140;-59
2021/08/31 09:20:46;;;;;;;5.05;2.70;;;;;;;33.16;34.66;100283.31;5038235;28;20538;-59
2021/08/31 09:23:21;;;;;;;5.68;2.47;;;;;;;33.49;33.74;100280.66;5048872;28;20083;-59
2021/08/31 09:25:51;;;;;;;6.20;1.92;;;;;;;33.61;33.15;100274.19;5045632;28;20077;-59
2021/08/31 09:28:32;;;;;;;6.32;2.63;;;;;;;33.71;33.25;100283.91;5046116;28;20462;-59
2021/08/31 09:31:01;;;;;;;5.45;2.65;;;;;;;34.05;32.84;100276.97;5035305;28;20053;-60
2021/08/31 09:33:31;;;;;;;5.95;2.38;;;;;;;34.37;31.70;100268.34;5035379;28;20046;-59
2021/08/31 09:36:12;;;;;;;9.82;2.92;;;;;;;34.70;32.34;100284.97;5032736;28;20136;-60
2021/08/31 09:39:02;;;;;;;7.55;2.63;;;;;;;34.89;31.69;100278.25;5031298;28;20080;-60
2021/08/31 09:41:30;;;;;;;5.03;3.13;;;;;;;35.21;30.98;100283.19;5032069;28;20502;-61
2021/08/31 09:43:59;;;;;;;5.13;2.97;;;;;;;35.17;30.02;100278.78;5032557;28;20128;-60
2021/08/31 09:46:46;;;;;;;4.72;2.97;;;;;;;35.17;30.56;100275.88;5047632;28;20131;-60
2021/08/31 09:49:46;;;;;;;6.40;2.50;;;;;;;35.35;30.89;100279.06;5035555;28;20088;-61
2021/08/31 09:52:15;;;;;;;7.70;3.35;;;;;;;35.57;29.93;100285.13;5027667;28;20128;-61
2021/08/31 09:54:47;;;;;;;4.53;2.90;;;;;;;35.64;29.40;100273.31;5030452;28;20084;-60
2021/08/31 09:57:37;;;;;;;9.55;2.72;;;;;;;35.82;30.11;100278.56;5034554;28;20128;-60
2021/08/31 10:00:10;;;;;;;5.28;2.58;;;;;;;36.01;29.23;100280.50;5036722;28;20132;-58
2021/08/31 10:02:38;;;;;;;7.50;3.00;;;;;;;36.21;28.37;100274.47;5051267;28;20088;-59
2021/08/31 10:05:05;;;;;;;8.70;3.08;;;;;;;36.47;28.05;100278.19;5047705;28;20052;-58
2021/08/31 10:07:33;;;;;;;5.72;2.50;;;;;;;36.63;28.27;100267.72;5050399;28;20124;-59
2021/08/31 10:10:01;;;;;;;7.05;2.70;;;;;;;36.81;28.22;100273.75;5048634;28;20115;-58
2021/08/31 10:12:30;;;;;;;6.03;2.70;;;;;;;36.98;27.56;100260.69;5043737;28;20152;-58
2021/08/31 10:14:59;;;;;;;7.50;2.78;;;;;;;37.16;27.68;100260.03;5047130;28;20190;-60
2021/08/31 10:17:27;;;;;;;7.57;2.33;;;;;;;37.19;27.32;100252.47;5044414;28;20057;-68
2021/08/31 10:19:58;;;;;;;;;;;;;;;36.76;29.89;100253.97;5041247;28;20091;-65
2021/08/31 10:22:26;;;;;;;6.45;3.00;;;;;;;37.02;28.42;100259.75;5041752;28;19967;-66
2021/08/31 10:24:54;;;;;;;7.05;3.25;;;;;;;37.11;28.08;100246.09;5043389;28;20386;-64
2021/08/31 10:27:30;;;;;;;5.38;2.92;;;;;;;37.27;28.55;100247.19;5040260;28;20073;-65
2021/08/31 10:30:13;;;;;;;7.13;3.70;;;;;;;37.29;28.60;100236.69;5035501;28;20057;-64
2021/08/31 10:32:41;;;;;;;9.50;3.70;;;;;;;37.51;27.95;100233.84;5036707;28;20614;-64
2021/08/31 10:35:09;;;;;;;11.70;4.30;;;;;;;37.54;28.03;100232.03;5039034;28;20123;-64
2021/08/31 10:37:47;;;;;;;10.10;4.47;;;;;;;37.43;27.87;100192.50;5035316;28;20076;-64
2021/08/31 10:40:35;;;;;;;9.43;4.20;;;;;;;37.76;28.16;100215.38;5037262;28;20314;-64
2021/08/31 10:43:13;;;;;;;18.77;5.53;;;;;;;37.75;28.10;100210.84;5036120;28;20460;-64
2021/08/31 10:45:54;;;;;;;10.05;5.45;;;;;;;37.70;27.70;100212.25;5040785;28;20124;-65
2021/08/31 10:48:24;;;;;;;8.25;3.72;;;;;;;37.77;28.00;100222.81;5040049;28;20060;-64
2021/08/31 10:51:06;;;;;;;8.15;4.28;;;;;;;37.57;28.07;100208.59;5044599;28;20139;-64
2021/08/31 10:53:38;;;;;;;7.00;4.30;;;;;;;37.78;28.23;100218.63;5034524;28;20493;-66
2021/08/31 10:56:24;;;;;;;12.30;4.20;;;;;;;37.72;28.44;100213.91;5037346;28;20520;-64
2021/08/31 10:59:06;;;;;;;12.75;6.60;;;;;;;37.72;28.48;100205.16;5034796;28;20136;-63
2021/08/31 11:01:37;;;;;;;9.48;4.47;;;;;;;38.39;27.00;100199.47;5033829;28;20115;-63
2021/08/31 11:04:30;;;;;;;6.90;4.35;;;;;;;39.31;26.56;100202.53;5036416;28;20049;-63
2021/08/31 11:07:02;;;;;;;12.50;4.28;;;;;;;40.12;25.25;100207.06;5037373;28;20085;-64
2021/08/31 11:09:30;;;;;;;9.27;4.07;;;;;;;40.21;25.01;100212.91;5040067;28;20144;-63
2021/08/31 11:12:05;;;;;;;10.70;4.65;;;;;;;39.80;25.54;100216.13;5045197;28;20512;-64
2021/08/31 11:14:38;;;;;;;9.95;4.00;;;;;;;39.46;26.16;100220.22;5037501;28;20076;-64
2021/08/31 11:17:05;;;;;;;8.50;4.82;;;;;;;39.31;26.45;100222.19;5034695;28;20068;-64
2021/08/31 11:19:31;;;;;;;10.48;4.32;;;;;;;39.21;26.11;100223.44;5037243;28;20081;-64
2021/08/31 11:21:58;;;;;;;11.00;4.97;;;;;;;38.83;26.09;100219.69;5038193;28;20080;-63
2021/08/31 11:24:26;;;;;;;7.20;4.30;;;;;;;38.64;26.36;100209.28;5038620;28;20100;-63
2021/08/31 11:27:01;;;;;;;7.00;4.55;;;;;;;38.64;26.86;100206.38;5033728;28;20172;-63
2021/08/31 11:29:28;;;;;;;7.28;4.47;;;;;;;38.64;26.59;100197.63;5035326;28;20183;-63
2021/08/31 11:32:02;;;;;;;8.15;4.32;;;;;;;38.94;26.09;100197.97;5033437;28;20068;-63
2021/08/31 11:34:31;;;;;;;8.77;4.13;;;;;;;39.10;26.13;100215.19;5040713;28;20095;-63